Thursday, April 24, 2014, 6:00 PM EDT

KLKU, Louisa, Louisa County Airport/freeman Field

Location: Louisa, VA, United States Lat: 38.01
Local Time: 6:00 PM EDT (22:00 GMT) Lon: -77.97
Time Zone: US/Eastern Elev: 492 ft

Show me the last for .
Show Decoded

2014-04-24 17:35 METAR KLKU 242135Z AUTO 00000KT 10SM CLR 19/M06 A2999 RMK AO2 =
2014-04-24 17:15 METAR KLKU 242115Z AUTO 29004KT 10SM CLR 19/M06 A2999 RMK AO2 =
2014-04-24 16:55 METAR KLKU 242055Z AUTO 00000KT 10SM CLR 19/M05 A2999 RMK AO2 =
2014-04-24 16:35 METAR KLKU 242035Z AUTO 00000KT 10SM CLR 19/M05 A2999 RMK AO2 =
2014-04-24 16:15 METAR KLKU 242015Z AUTO 00000KT 10SM CLR 18/M04 A3000 RMK AO2 =
2014-04-24 15:55 METAR KLKU 241955Z AUTO 01003KT 10SM CLR 19/M05 A3001 RMK AO2 =
2014-04-24 15:35 METAR KLKU 241935Z AUTO 29007KT 10SM CLR 18/M05 A3002 RMK AO2 =
2014-04-24 15:15 METAR KLKU 241915Z AUTO 36003KT 10SM CLR 18/M05 A3003 RMK AO2 =
2014-04-24 14:55 METAR KLKU 241855Z AUTO 32003KT 10SM CLR 17/M06 A3004 RMK AO2 =
2014-04-24 14:35 METAR KLKU 241835Z AUTO 25003KT 10SM CLR 17/M06 A3005 RMK AO2 =
2014-04-24 14:15 METAR KLKU 241815Z AUTO 27005KT 10SM CLR 17/M06 A3005 RMK AO2 =
2014-04-24 13:55 METAR KLKU 241755Z AUTO 35007KT 10SM CLR 16/M06 A3007 RMK AO2 =
2014-04-24 13:35 METAR KLKU 241735Z AUTO 00000KT 10SM CLR 16/M08 A3007 RMK AO2 =
2014-04-24 13:15 METAR KLKU 241715Z AUTO 27003KT 10SM CLR 15/M06 A3008 RMK AO2 =
2014-04-24 12:55 METAR KLKU 241655Z AUTO 00000KT 10SM CLR 14/M05 A3009 RMK AO2 =
2014-04-24 12:35 METAR KLKU 241635Z AUTO 29007KT 260V320 10SM CLR 14/M05 A3010 RMK AO2 =
2014-04-24 12:15 METAR KLKU 241615Z AUTO 01007KT 350V060 10SM CLR 14/M04 A3012 RMK AO2 =
2014-04-24 11:55 METAR KLKU 241555Z AUTO 00000KT 10SM CLR 13/M04 A3012 RMK AO2 =
2014-04-24 11:35 METAR KLKU 241535Z AUTO 33003KT 10SM CLR 12/M05 A3013 RMK AO2 =
2014-04-24 11:15 METAR KLKU 241515Z AUTO 06003KT 10SM CLR 12/M05 A3014 RMK AO2 =
2014-04-24 10:55 METAR KLKU 241455Z AUTO 31007KT 10SM CLR 13/M06 A3014 RMK AO2 =
2014-04-24 10:35 METAR KLKU 241435Z AUTO 35009G14KT 10SM CLR 12/M05 A3013 RMK AO2 =
2014-04-24 10:15 METAR KLKU 241415Z AUTO 01009G14KT 350V060 10SM CLR 12/M04 A3014 RMK AO2 =
2014-04-24 09:55 METAR KLKU 241355Z AUTO 00000KT 10SM CLR 11/M03 A3014 RMK AO2 =
2014-04-24 09:35 METAR KLKU 241335Z AUTO 00000KT 10SM CLR 10/M03 A3014 RMK AO2 =
2014-04-24 09:15 METAR KLKU 241315Z AUTO 04005KT 10SM CLR 10/M03 A3014 RMK AO2 =
2014-04-24 08:55 METAR KLKU 241255Z AUTO 02006KT 10SM CLR 09/M03 A3013 RMK AO2 =
2014-04-24 08:35 METAR KLKU 241235Z AUTO 35005KT 10SM CLR 09/M02 A3013 RMK AO2 =
2014-04-24 08:15 METAR KLKU 241215Z AUTO 00000KT 10SM CLR 09/M01 A3013 RMK AO2 =
2014-04-24 07:55 METAR KLKU 241155Z AUTO 00000KT 10SM CLR 07/01 A3012 RMK AO2 =
2014-04-24 07:35 METAR KLKU 241135Z AUTO 00000KT 10SM CLR 05/03 A3011 RMK AO2 =
2014-04-24 07:15 METAR KLKU 241115Z AUTO 00000KT 10SM CLR 02/00 A3009 RMK AO2 =
2014-04-24 06:55 METAR KLKU 241055Z AUTO 27003KT 10SM CLR M01/M02 A3009 RMK AO2 =
2014-04-24 06:35 METAR KLKU 241035Z AUTO 00000KT 10SM CLR M01/M02 A3008 RMK AO2 =
2014-04-24 06:15 METAR KLKU 241015Z AUTO 00000KT 10SM CLR M01/M03 A3007 RMK AO2 =
2014-04-24 05:55 METAR KLKU 240955Z AUTO 00000KT 10SM CLR M01/M03 A3007 RMK AO2 =
2014-04-24 05:35 METAR KLKU 240935Z AUTO 00000KT 10SM CLR 00/M02 A3006 RMK AO2 =
2014-04-24 05:15 METAR KLKU 240915Z AUTO 00000KT 10SM CLR M01/M02 A3005 RMK AO2 =
2014-04-24 04:55 METAR KLKU 240855Z AUTO 00000KT 10SM CLR 00/M02 A3004 RMK AO2 =
2014-04-24 04:35 METAR KLKU 240835Z AUTO 00000KT 10SM CLR 02/M01 A3003 RMK AO2 =
2014-04-24 04:15 METAR KLKU 240815Z AUTO 00000KT 10SM CLR 01/M01 A3002 RMK AO2 =
2014-04-24 03:55 METAR KLKU 240755Z AUTO 00000KT 10SM CLR 01/M01 A3003 RMK AO2 =
2014-04-24 03:35 METAR KLKU 240735Z AUTO 00000KT 10SM CLR 01/M01 A3003 RMK AO2 =
2014-04-24 03:15 METAR KLKU 240715Z AUTO 34004KT 10SM CLR 05/00 A3002 RMK AO2 =
2014-04-24 02:55 METAR KLKU 240655Z AUTO 00000KT 10SM CLR 02/00 A3002 RMK AO2 =
2014-04-24 02:35 METAR KLKU 240635Z AUTO 32003KT 10SM CLR 06/00 A3002 RMK AO2 =
2014-04-24 02:15 METAR KLKU 240615Z AUTO 00000KT 10SM CLR 03/00 A3002 RMK AO2 =
2014-04-24 01:55 METAR KLKU 240555Z AUTO 00000KT 10SM CLR 08/00 A3002 RMK AO2 =
2014-04-24 01:35 METAR KLKU 240535Z AUTO 02003KT 10SM CLR 07/00 A3002 RMK AO2 =
2014-04-24 01:15 METAR KLKU 240515Z AUTO 03004KT 10SM CLR 07/M01 A3002 RMK AO2 =
2014-04-24 00:55 METAR KLKU 240455Z AUTO 00000KT 10SM CLR 06/M01 A3001 RMK AO2 =
2014-04-24 00:35 METAR KLKU 240435Z AUTO 00000KT 10SM CLR 09/M01 A3001 RMK AO2 =
2014-04-24 00:15 METAR KLKU 240415Z AUTO 32008KT 10SM CLR 09/M01 A3000 RMK AO2 =
2014-04-23 23:55 METAR KLKU 240355Z AUTO 00000KT 10SM CLR 07/00 A3001 RMK AO2 =
2014-04-23 23:35 METAR KLKU 240335Z AUTO 24004KT 10SM CLR 09/M01 A2999 RMK AO2 =
2014-04-23 23:15 METAR KLKU 240315Z AUTO 30003KT 10SM CLR 11/M01 A2999 RMK AO2 =
2014-04-23 22:55 METAR KLKU 240255Z AUTO 30007KT 10SM CLR 12/M01 A2998 RMK AO2 =
2014-04-23 22:35 METAR KLKU 240235Z AUTO 31008KT 10SM CLR 11/M01 A2997 RMK AO2 =
2014-04-23 22:15 METAR KLKU 240215Z AUTO 31003KT 10SM CLR 12/M02 A2998 RMK AO2 =
2014-04-23 21:55 METAR KLKU 240155Z AUTO 34003KT 10SM CLR 12/M02 A2997 RMK AO2 =
2014-04-23 21:35 METAR KLKU 240135Z AUTO 31009KT 10SM CLR 13/M02 A2995 RMK AO2 =
2014-04-23 20:55 METAR KLKU 240055Z AUTO 29009KT 10SM CLR 12/M01 A2995 RMK AO2 =
2014-04-23 20:35 METAR KLKU 240035Z AUTO 28004KT 10SM CLR 13/M01 A2994 RMK AO2 =
2014-04-23 20:15 METAR KLKU 240015Z AUTO 29005KT 10SM CLR 14/M01 A2992 RMK AO2 =
2014-04-23 19:55 METAR KLKU 232355Z AUTO 32005KT 10SM CLR 14/M01 A2990 RMK AO2 =
2014-04-23 19:35 METAR KLKU 232335Z AUTO 33013G17KT 10SM CLR 15/M01 A2988 RMK AO2 =
2014-04-23 19:15 METAR KLKU 232315Z AUTO 32011G17KT 10SM CLR 16/M01 A2987 RMK AO2 =
2014-04-23 18:55 METAR KLKU 232255Z AUTO 31010G21KT 10SM CLR 16/M01 A2987 RMK AO2 =
2014-04-23 18:35 METAR KLKU 232235Z AUTO 31011G18KT 10SM CLR 17/M01 A2987 RMK AO2 =
2014-04-23 18:15 METAR KLKU 232215Z AUTO 33011G20KT 10SM CLR 17/M01 A2986 RMK AO2 =

Support USWX by starting your Amazon purchase here.